createdAt,value
2019-05-13T00:00:34.164Z,38.55
2019-05-13T00:03:03.863Z,37.33
2019-05-13T00:05:33.994Z,39.84
2019-05-13T00:08:03.590Z,36.99
2019-05-13T00:10:34.705Z,38.02
2019-05-13T00:13:04.339Z,38.46
2019-05-13T00:15:34.220Z,39.53
2019-05-13T00:18:03.968Z,38.53
2019-05-13T00:20:33.837Z,38.95
2019-05-13T00:23:03.935Z,38.62
2019-05-13T00:25:33.880Z,39.04
2019-05-13T00:28:04.011Z,38.59
2019-05-13T00:30:34.174Z,40.30
2019-05-13T00:33:03.797Z,40.27
2019-05-13T00:35:33.813Z,39.64
2019-05-13T00:38:03.801Z,40.51
2019-05-13T00:40:33.907Z,41.34
2019-05-13T00:43:03.787Z,42.71
2019-05-13T00:45:33.897Z,43.00
2019-05-13T00:48:04.565Z,44.43
2019-05-13T00:50:33.768Z,43.61
2019-05-13T00:53:04.295Z,43.88
2019-05-13T00:55:34.418Z,43.98
2019-05-13T00:58:04.281Z,42.96
2019-05-13T01:00:33.875Z,42.83
2019-05-13T01:03:04.013Z,44.10
2019-05-13T01:05:34.021Z,44.33
2019-05-13T01:08:04.313Z,44.30
2019-05-13T01:10:34.596Z,45.31
2019-05-13T01:13:04.745Z,44.39
2019-05-13T01:15:34.327Z,43.41
2019-05-13T01:18:04.002Z,43.92
2019-05-13T01:20:34.393Z,44.44
2019-05-13T01:23:03.906Z,44.80
2019-05-13T01:25:33.629Z,42.94
2019-05-13T01:28:04.538Z,42.86
2019-05-13T01:30:34.673Z,43.68
2019-05-13T01:33:04.299Z,44.08
2019-05-13T01:35:34.347Z,42.98
2019-05-13T01:38:04.524Z,44.06
2019-05-13T01:40:34.689Z,44.80
2019-05-13T01:43:04.214Z,45.00
2019-05-13T01:45:33.801Z,43.84
2019-05-13T01:48:06.776Z,43.62
2019-05-13T01:50:33.699Z,44.47
2019-05-13T01:53:04.128Z,44.31
2019-05-13T01:55:33.848Z,44.55
2019-05-13T01:58:04.305Z,44.82
2019-05-13T02:00:35.261Z,46.33
2019-05-13T02:03:04.167Z,45.22
2019-05-13T02:05:34.036Z,44.55
2019-05-13T02:08:04.459Z,45.85
2019-05-13T02:10:55.652Z,45.08
2019-05-13T02:13:25.083Z,44.22
2019-05-13T02:15:55.245Z,44.48
2019-05-13T02:18:24.853Z,46.34
2019-05-13T02:20:55.267Z,45.08
2019-05-13T02:23:24.413Z,44.71
2019-05-13T02:25:54.306Z,44.79
2019-05-13T02:28:24.669Z,45.57
2019-05-13T02:30:55.756Z,44.57
2019-05-13T02:33:24.107Z,45.90
2019-05-13T02:35:53.771Z,46.41
2019-05-13T02:38:28.979Z,44.91
2019-05-13T02:40:53.426Z,45.10
2019-05-13T02:43:23.700Z,47.25
2019-05-13T02:45:53.746Z,44.28
2019-05-13T02:48:23.912Z,44.42
2019-05-13T02:50:53.922Z,45.28
2019-05-13T02:53:24.118Z,45.04
2019-05-13T02:55:53.152Z,49.49
2019-05-13T02:58:24.524Z,46.06
2019-05-13T03:00:53.955Z,45.49
2019-05-13T03:03:23.453Z,45.25
2019-05-13T03:05:52.858Z,45.28
2019-05-13T03:08:38.503Z,43.99
2019-05-13T03:10:53.359Z,44.72
2019-05-13T03:13:23.631Z,45.77
2019-05-13T03:16:13.296Z,45.73
2019-05-13T03:18:43.612Z,45.44
2019-05-13T03:21:13.327Z,46.26
2019-05-13T03:23:44.159Z,45.79
2019-05-13T03:26:13.206Z,45.27
2019-05-13T03:28:43.718Z,44.54
2019-05-13T03:31:16.962Z,44.16
2019-05-13T03:33:46.259Z,44.84
2019-05-13T03:36:16.529Z,44.79
2019-05-13T03:38:59.288Z,46.86
2019-05-13T03:41:15.343Z,44.89
2019-05-13T03:43:45.004Z,44.85
2019-05-13T03:46:13.776Z,44.50
2019-05-13T03:48:42.989Z,45.25
2019-05-13T03:51:13.316Z,46.17
2019-05-13T03:53:43.409Z,45.28
2019-05-13T03:56:13.222Z,46.74
2019-05-13T03:58:43.307Z,47.33
2019-05-13T04:01:13.294Z,46.88
2019-05-13T04:03:44.044Z,45.70
2019-05-13T04:06:13.815Z,47.90
2019-05-13T04:08:43.857Z,45.82
2019-05-13T04:11:12.960Z,47.46
2019-05-13T04:13:42.996Z,44.10
2019-05-13T04:16:12.861Z,45.93
2019-05-13T04:18:42.786Z,46.03
2019-05-13T04:21:13.014Z,44.94
2019-05-13T04:23:42.799Z,47.20
2019-05-13T04:26:14.673Z,46.25
2019-05-13T04:28:43.397Z,46.14
2019-05-13T04:31:14.174Z,45.29
2019-05-13T04:33:43.089Z,45.82
2019-05-13T04:36:13.358Z,47.25
2019-05-13T04:38:44.107Z,47.09
2019-05-13T04:41:12.645Z,47.19
2019-05-13T04:43:43.485Z,47.60
2019-05-13T04:46:14.040Z,45.85
2019-05-13T04:48:44.225Z,46.64
2019-05-13T04:51:13.775Z,47.31
2019-05-13T04:53:42.826Z,45.69
2019-05-13T04:56:13.804Z,46.12
2019-05-13T04:58:43.099Z,48.46
2019-05-13T05:01:40.226Z,46.22
2019-05-13T05:04:22.372Z,45.69
2019-05-13T05:07:05.856Z,45.64
2019-05-13T05:10:22.101Z,46.15
2019-05-13T05:12:52.041Z,45.58
2019-05-13T05:15:47.086Z,44.80
2019-05-13T05:19:01.813Z,45.08
2019-05-13T05:21:35.292Z,45.60
2019-05-13T05:24:52.046Z,45.92
2019-05-13T05:27:58.147Z,44.84
2019-05-13T05:31:14.456Z,44.08
2019-05-13T05:34:06.530Z,46.74
2019-05-13T05:37:26.184Z,45.19
2019-05-13T05:39:56.185Z,45.32
2019-05-13T05:42:25.462Z,45.18
2019-05-13T05:44:55.433Z,46.32
2019-05-13T05:47:25.617Z,47.07
2019-05-13T05:49:56.726Z,44.89
2019-05-13T05:52:27.298Z,44.48
2019-05-13T05:54:56.312Z,45.60
2019-05-13T05:57:26.758Z,42.27
2019-05-13T05:59:56.650Z,39.79
2019-05-13T06:02:27.904Z,37.71
2019-05-13T06:04:57.440Z,36.29
2019-05-13T06:07:26.026Z,33.62
2019-05-13T06:09:54.687Z,32.33
2019-05-13T06:12:23.554Z,33.76
2019-05-13T06:14:52.646Z,34.30
2019-05-13T06:17:22.016Z,32.57
2019-05-13T06:19:51.330Z,35.60
2019-05-13T06:22:21.704Z,36.24
2019-05-13T06:24:52.163Z,36.07
2019-05-13T06:27:21.473Z,34.22
2019-05-13T06:29:52.562Z,32.80
2019-05-13T06:32:25.458Z,31.33
2019-05-13T06:34:52.523Z,31.83
2019-05-13T06:37:21.889Z,29.15
2019-05-13T06:39:51.292Z,28.43
2019-05-13T06:42:22.215Z,28.34
2019-05-13T06:44:51.372Z,27.63
2019-05-13T06:47:21.979Z,27.15
2019-05-13T06:49:51.621Z,25.20
2019-05-13T06:52:21.345Z,25.15
2019-05-13T06:54:52.064Z,25.68
2019-05-13T06:57:22.031Z,25.57
2019-05-13T06:59:52.413Z,26.69
2019-05-13T07:02:21.713Z,25.93
2019-05-13T07:04:51.613Z,24.47
2019-05-13T07:07:21.969Z,26.39
2019-05-13T07:09:51.748Z,23.28
2019-05-13T07:12:21.985Z,23.17
2019-05-13T07:14:51.810Z,23.83
2019-05-13T07:17:22.258Z,21.11
2019-05-13T07:19:51.638Z,22.12
2019-05-13T07:22:22.937Z,20.82
2019-05-13T07:24:51.974Z,22.46
2019-05-13T07:27:22.951Z,22.49
2019-05-13T07:29:53.608Z,20.27
2019-05-13T07:32:22.245Z,21.55
2019-05-13T07:34:53.315Z,22.72
2019-05-13T07:37:22.071Z,20.59
2019-05-13T07:39:53.017Z,19.93
2019-05-13T07:42:22.220Z,20.37
2019-05-13T07:44:52.224Z,20.88
2019-05-13T07:47:22.284Z,20.55
2019-05-13T07:49:51.652Z,21.55
2019-05-13T07:52:22.781Z,20.92
2019-05-13T07:54:52.043Z,21.26
2019-05-13T07:57:21.519Z,21.17
2019-05-13T07:59:52.251Z,20.33
2019-05-13T08:02:21.686Z,20.59
2019-05-13T08:04:53.087Z,21.68
2019-05-13T08:07:22.601Z,20.51
2019-05-13T08:09:55.156Z,20.32
2019-05-13T08:12:21.879Z,18.97
2019-05-13T08:14:52.167Z,18.22
2019-05-13T08:17:22.452Z,17.14
2019-05-13T08:19:52.086Z,17.03
2019-05-13T08:22:22.051Z,18.24
2019-05-13T08:24:53.812Z,16.99
2019-05-13T08:27:30.000Z,17.15
2019-05-13T08:29:52.327Z,15.44
2019-05-13T08:32:22.141Z,16.95
2019-05-13T08:34:52.474Z,17.19
2019-05-13T08:37:21.789Z,17.97
2019-05-13T08:39:52.222Z,16.62
2019-05-13T08:42:23.357Z,16.83
2019-05-13T08:44:52.409Z,15.76
2019-05-13T08:47:22.453Z,17.58
2019-05-13T08:49:52.053Z,15.20
2019-05-13T08:52:21.921Z,16.35
2019-05-13T08:54:52.387Z,15.65
2019-05-13T08:57:22.172Z,14.87
2019-05-13T08:59:51.712Z,15.62
2019-05-13T09:02:22.227Z,13.96
2019-05-13T09:04:51.617Z,14.70
2019-05-13T09:07:24.113Z,14.45
2019-05-13T09:09:51.301Z,15.38
2019-05-13T09:12:29.533Z,15.54
2019-05-13T09:14:52.394Z,15.34
2019-05-13T09:17:21.330Z,15.06
2019-05-13T09:19:51.981Z,15.00
2019-05-13T09:22:21.450Z,14.13
2019-05-13T09:24:52.841Z,15.23
2019-05-13T09:27:22.567Z,14.97
2019-05-13T09:29:51.873Z,14.75
2019-05-13T09:32:21.647Z,14.53
2019-05-13T09:34:52.508Z,15.13
2019-05-13T09:37:22.406Z,14.93
2019-05-13T09:39:51.898Z,15.28
2019-05-13T09:42:21.738Z,14.93
2019-05-13T09:44:52.522Z,14.01
2019-05-13T09:47:21.691Z,14.47
2019-05-13T09:49:50.414Z,14.14
2019-05-13T09:52:19.012Z,15.20
2019-05-13T09:54:48.667Z,14.31
2019-05-13T09:57:17.363Z,15.87
2019-05-13T09:59:46.311Z,15.40
2019-05-13T10:02:15.185Z,16.70
2019-05-13T10:04:44.114Z,14.18
2019-05-13T10:07:13.376Z,15.45
2019-05-13T10:09:43.185Z,14.87
2019-05-13T10:12:13.235Z,14.74
2019-05-13T10:14:41.919Z,14.22
2019-05-13T10:17:12.936Z,15.94
2019-05-13T10:19:42.018Z,15.83
2019-05-13T10:22:11.998Z,14.54
2019-05-13T10:24:42.388Z,15.88
2019-05-13T10:27:12.215Z,14.69
2019-05-13T10:29:42.447Z,14.48
2019-05-13T10:32:11.425Z,16.01
2019-05-13T10:34:42.612Z,15.40
2019-05-13T10:37:11.739Z,17.21
2019-05-13T10:39:40.639Z,17.05
2019-05-13T10:42:11.820Z,16.38
2019-05-13T10:44:41.661Z,15.92
2019-05-13T10:47:12.047Z,16.11
2019-05-13T10:49:42.509Z,15.71
2019-05-13T10:52:12.256Z,16.99
2019-05-13T10:54:41.644Z,16.05
2019-05-13T10:57:13.353Z,15.59
2019-05-13T10:59:41.012Z,15.43
2019-05-13T11:02:13.103Z,16.70
2019-05-13T11:04:41.789Z,14.76
2019-05-13T11:07:12.077Z,14.30
2019-05-13T11:09:41.865Z,15.95
2019-05-13T11:12:12.294Z,15.87
2019-05-13T11:14:42.175Z,15.74
2019-05-13T11:17:13.183Z,16.59
2019-05-13T11:19:41.644Z,16.62
2019-05-13T11:22:12.298Z,17.15
2019-05-13T11:24:43.201Z,17.72
2019-05-13T11:27:12.035Z,17.82
2019-05-13T11:29:41.504Z,17.44
2019-05-13T11:32:12.997Z,18.01
2019-05-13T11:34:41.994Z,17.91
2019-05-13T11:37:12.323Z,18.57
2019-05-13T11:39:42.790Z,18.10
2019-05-13T11:42:13.531Z,19.32
2019-05-13T11:44:43.017Z,21.53
2019-05-13T11:47:12.699Z,20.82
2019-05-13T11:49:42.515Z,21.84
2019-05-13T11:52:12.060Z,20.75
2019-05-13T11:54:42.529Z,20.51
2019-05-13T11:57:12.504Z,19.60
2019-05-13T11:59:42.963Z,20.35
2019-05-13T12:02:13.596Z,24.59
2019-05-13T12:04:43.199Z,22.75
2019-05-13T12:07:13.478Z,22.35
2019-05-13T12:09:42.194Z,20.85
2019-05-13T12:12:13.240Z,21.34
2019-05-13T12:14:56.920Z,22.36
2019-05-13T12:17:14.093Z,20.92
2019-05-13T12:19:42.100Z,22.15
2019-05-13T12:22:13.103Z,20.35
2019-05-13T12:24:42.249Z,23.23
2019-05-13T12:27:11.588Z,22.41
2019-05-13T12:29:43.055Z,24.70
2019-05-13T12:32:13.548Z,24.85
2019-05-13T12:34:45.601Z,26.32
2019-05-13T12:37:12.339Z,24.38
2019-05-13T12:39:43.904Z,22.79
2019-05-13T12:42:12.734Z,22.91
2019-05-13T12:44:59.861Z,23.16
2019-05-13T12:47:12.287Z,22.20
2019-05-13T12:49:43.855Z,22.54
2019-05-13T12:52:13.153Z,22.16
2019-05-13T12:54:43.930Z,21.11
2019-05-13T12:57:15.702Z,22.27
2019-05-13T12:59:43.657Z,21.92
2019-05-13T13:02:13.533Z,20.78
2019-05-13T13:05:07.389Z,20.84
2019-05-13T13:07:13.537Z,21.19
2019-05-13T13:09:43.258Z,21.45
2019-05-13T13:12:12.178Z,21.12
2019-05-13T13:14:44.405Z,20.73
2019-05-13T13:17:12.832Z,20.65
2019-05-13T13:19:41.978Z,19.10
2019-05-13T13:22:13.197Z,18.90
2019-05-13T13:24:51.290Z,20.77
2019-05-13T13:27:18.968Z,20.35
2019-05-13T13:29:43.361Z,20.77
2019-05-13T13:32:13.383Z,20.91
2019-05-13T13:34:44.100Z,21.36
2019-05-13T13:37:12.941Z,21.53
2019-05-13T13:39:43.180Z,20.65
2019-05-13T13:42:13.084Z,21.12
2019-05-13T13:44:43.043Z,20.17
2019-05-13T13:47:14.948Z,20.17
2019-05-13T13:49:43.874Z,20.86
2019-05-13T13:52:16.176Z,21.67
2019-05-13T13:54:44.370Z,21.29
2019-05-13T13:57:13.758Z,21.48
2019-05-13T14:00:14.179Z,21.35
2019-05-13T14:02:13.831Z,20.32
2019-05-13T14:04:43.387Z,20.71
2019-05-13T14:07:35.929Z,20.88
2019-05-13T14:09:45.485Z,20.74
2019-05-13T14:12:14.260Z,20.75
2019-05-13T14:14:43.445Z,20.95
2019-05-13T14:17:12.151Z,20.50
2019-05-13T14:19:42.211Z,19.68
2019-05-13T14:22:12.633Z,20.14
2019-05-13T14:24:42.578Z,21.04
2019-05-13T14:27:12.202Z,19.95
2019-05-13T14:29:46.117Z,20.70
2019-05-13T14:32:11.760Z,20.49
2019-05-13T14:34:42.081Z,20.27
2019-05-13T14:37:11.697Z,19.65
2019-05-13T14:39:40.860Z,20.82
2019-05-13T14:42:11.651Z,20.20
2019-05-13T14:44:40.120Z,20.18
2019-05-13T14:47:09.457Z,20.78
2019-05-13T14:49:38.080Z,19.23
2019-05-13T14:52:06.821Z,20.80
2019-05-13T14:54:35.632Z,19.80
2019-05-13T14:57:04.879Z,20.41
2019-05-13T14:59:33.624Z,20.40
2019-05-13T15:02:02.403Z,19.64
2019-05-13T15:04:32.561Z,20.77
2019-05-13T15:07:01.470Z,19.62
2019-05-13T15:09:31.449Z,18.89
2019-05-13T15:12:02.119Z,20.05
2019-05-13T15:14:31.907Z,20.33
2019-05-13T15:17:06.262Z,20.50
2019-05-13T15:19:31.782Z,20.00
2019-05-13T15:22:00.526Z,21.06
2019-05-13T15:24:32.004Z,21.02
2019-05-13T15:26:59.641Z,20.07
2019-05-13T15:29:31.130Z,20.54
2019-05-13T15:31:59.030Z,20.45
2019-05-13T15:34:27.765Z,19.94
2019-05-13T15:36:56.462Z,21.68
2019-05-13T15:39:25.345Z,21.46
2019-05-13T15:41:53.935Z,21.66
2019-05-13T15:44:22.688Z,21.86
2019-05-13T15:46:52.330Z,21.12
2019-05-13T15:49:22.064Z,21.37
2019-05-13T15:51:51.150Z,19.81
2019-05-13T15:54:22.123Z,20.89
2019-05-13T15:56:50.196Z,20.10
2019-05-13T15:59:21.446Z,21.06
2019-05-13T16:01:52.272Z,20.48
2019-05-13T16:04:21.355Z,21.70
2019-05-13T16:06:52.143Z,21.92
2019-05-13T16:09:21.157Z,22.44
2019-05-13T16:11:51.994Z,22.80
2019-05-13T16:14:21.987Z,22.27
2019-05-13T16:16:52.265Z,22.50
2019-05-13T16:19:22.021Z,22.71
2019-05-13T16:21:54.881Z,21.54
2019-05-13T16:24:23.742Z,22.20
2019-05-13T16:26:52.721Z,22.45
2019-05-13T16:29:22.433Z,21.96
2019-05-13T16:31:51.973Z,22.08
2019-05-13T16:34:22.274Z,21.80
2019-05-13T16:36:53.063Z,21.78
2019-05-13T16:39:21.558Z,23.01
2019-05-13T16:41:51.644Z,22.66
2019-05-13T16:44:22.491Z,22.40
2019-05-13T16:46:51.250Z,22.47
2019-05-13T16:49:21.258Z,22.60
2019-05-13T16:51:51.790Z,22.42
2019-05-13T16:54:22.038Z,21.75
2019-05-13T16:56:51.772Z,22.13
2019-05-13T16:59:21.172Z,22.19
2019-05-13T17:01:51.279Z,22.84
2019-05-13T17:04:21.536Z,22.11
2019-05-13T17:06:52.993Z,21.98
2019-05-13T17:09:21.947Z,22.13
2019-05-13T17:11:51.923Z,22.56
2019-05-13T17:14:21.563Z,22.63
2019-05-13T17:16:51.856Z,23.45
2019-05-13T17:19:20.594Z,22.97
2019-05-13T17:21:51.815Z,22.33
2019-05-13T17:24:22.405Z,22.90
2019-05-13T17:26:52.228Z,22.75
2019-05-13T17:29:21.162Z,22.62
2019-05-13T17:31:51.470Z,22.92
2019-05-13T17:34:21.155Z,23.49
2019-05-13T17:36:51.982Z,22.44
2019-05-13T17:39:21.308Z,22.72
2019-05-13T17:41:52.229Z,22.67
2019-05-13T17:44:21.951Z,22.76
2019-05-13T17:46:52.219Z,23.20
2019-05-13T17:49:22.123Z,23.33
2019-05-13T17:51:51.729Z,22.39
2019-05-13T17:54:22.159Z,22.24
2019-05-13T17:56:50.946Z,22.36
2019-05-13T17:59:21.683Z,23.49
2019-05-13T18:01:51.686Z,23.51
2019-05-13T18:04:22.618Z,23.30
2019-05-13T18:06:52.303Z,24.62
2019-05-13T18:09:22.324Z,23.96
2019-05-13T18:11:52.853Z,24.51
2019-05-13T18:14:21.766Z,24.24
2019-05-13T18:16:50.577Z,24.57
2019-05-13T18:19:19.426Z,24.28
2019-05-13T18:21:48.051Z,24.69
2019-05-13T18:24:16.640Z,25.50
2019-05-13T18:26:45.301Z,25.37
2019-05-13T18:29:14.145Z,25.46
2019-05-13T18:31:48.731Z,25.50
2019-05-13T18:34:17.549Z,25.67
2019-05-13T18:36:46.168Z,25.21
2019-05-13T18:39:14.933Z,25.57
2019-05-13T18:41:43.649Z,25.56
2019-05-13T18:44:12.534Z,25.96
2019-05-13T18:46:41.883Z,25.95
2019-05-13T18:49:11.973Z,25.46
2019-05-13T18:51:44.242Z,25.73
2019-05-13T18:54:12.978Z,25.17
2019-05-13T18:56:41.976Z,25.22
2019-05-13T18:59:12.497Z,25.99
2019-05-13T19:01:40.881Z,25.67
2019-05-13T19:04:11.437Z,25.61
2019-05-13T19:06:42.377Z,26.60
2019-05-13T19:09:11.242Z,26.96
2019-05-13T19:11:42.452Z,26.49
2019-05-13T19:14:12.265Z,27.42
2019-05-13T19:16:42.199Z,27.68
2019-05-13T19:19:15.559Z,27.70
2019-05-13T19:21:41.719Z,27.30
2019-05-13T19:24:13.156Z,27.57
2019-05-13T19:26:41.678Z,28.71
2019-05-13T19:29:11.547Z,27.74
2019-05-13T19:31:41.783Z,27.76
2019-05-13T19:34:12.475Z,27.69
2019-05-13T19:36:40.978Z,29.89
2019-05-13T19:39:11.374Z,29.71
2019-05-13T19:41:42.077Z,28.53
2019-05-13T19:44:10.462Z,28.88
2019-05-13T19:46:41.899Z,29.80
2019-05-13T19:49:12.102Z,30.26
2019-05-13T19:51:41.625Z,29.72
2019-05-13T19:54:11.762Z,31.05
2019-05-13T19:56:40.465Z,31.05
2019-05-13T19:59:12.413Z,31.71
2019-05-13T20:01:42.341Z,32.28
2019-05-13T20:04:11.101Z,33.02
2019-05-13T20:06:41.482Z,32.27
2019-05-13T20:09:10.482Z,32.15
2019-05-13T20:11:41.795Z,32.15
2019-05-13T20:14:11.876Z,32.49
2019-05-13T20:16:41.683Z,32.74
2019-05-13T20:19:11.839Z,32.33
2019-05-13T20:21:42.585Z,31.59
2019-05-13T20:24:11.849Z,31.30
2019-05-13T20:26:41.400Z,31.70
2019-05-13T20:29:12.398Z,31.53
2019-05-13T20:31:41.385Z,31.81
2019-05-13T20:34:11.817Z,31.90
2019-05-13T20:36:42.254Z,32.82
2019-05-13T20:39:11.700Z,31.79
2019-05-13T20:41:41.436Z,32.47
2019-05-13T20:44:10.190Z,32.27
2019-05-13T20:46:38.800Z,34.06
2019-05-13T20:49:07.513Z,33.50
2019-05-13T20:51:36.349Z,33.53
2019-05-13T20:54:05.036Z,34.53
2019-05-13T20:56:33.786Z,33.08
2019-05-13T20:59:02.476Z,33.88
2019-05-13T21:01:31.500Z,34.09
2019-05-13T21:04:01.818Z,33.43
2019-05-13T21:06:31.586Z,34.79
2019-05-13T21:09:01.507Z,34.66
2019-05-13T21:11:31.088Z,33.36
2019-05-13T21:14:01.184Z,35.12
2019-05-13T21:16:30.055Z,34.79
2019-05-13T21:18:58.694Z,35.25
2019-05-13T21:21:27.594Z,35.67
2019-05-13T21:23:56.244Z,33.82
2019-05-13T21:26:25.057Z,35.69
2019-05-13T21:28:53.897Z,35.09
2019-05-13T21:31:22.528Z,35.20
2019-05-13T21:33:51.441Z,35.90
2019-05-13T21:36:21.671Z,36.16
2019-05-13T21:38:50.544Z,36.85
2019-05-13T21:41:21.169Z,37.07
2019-05-13T21:43:51.895Z,37.16
2019-05-13T21:46:21.242Z,37.37
2019-05-13T21:48:51.978Z,37.46
2019-05-13T21:51:22.167Z,37.21
2019-05-13T21:53:51.897Z,37.35
2019-05-13T21:56:22.900Z,38.18
2019-05-13T21:58:52.184Z,38.13
2019-05-13T22:01:23.303Z,37.89
2019-05-13T22:03:51.550Z,38.79
2019-05-13T22:06:21.838Z,39.83
2019-05-13T22:08:51.802Z,39.79
2019-05-13T22:11:22.251Z,40.13
2019-05-13T22:13:51.522Z,39.23
2019-05-13T22:16:21.583Z,39.61
2019-05-13T22:18:52.320Z,40.68
2019-05-13T22:21:21.151Z,40.23
2019-05-13T22:23:51.768Z,39.02
2019-05-13T22:26:22.090Z,39.22
2019-05-13T22:28:51.236Z,39.74
2019-05-13T22:31:22.089Z,39.36
2019-05-13T22:33:51.872Z,40.12
2019-05-13T22:36:21.304Z,40.67
2019-05-13T22:38:51.628Z,40.65
2019-05-13T22:41:22.226Z,40.33
2019-05-13T22:43:58.065Z,41.25
2019-05-13T22:46:21.576Z,41.23
2019-05-13T22:48:51.290Z,42.20
2019-05-13T22:51:21.372Z,42.18
2019-05-13T22:53:50.047Z,42.52
2019-05-13T22:56:18.655Z,40.55
2019-05-13T22:58:47.356Z,40.69
2019-05-13T23:01:16.257Z,42.19
2019-05-13T23:03:45.040Z,41.76
2019-05-13T23:06:13.902Z,41.99
2019-05-13T23:08:42.537Z,41.20
2019-05-13T23:11:11.249Z,41.21
2019-05-13T23:13:41.954Z,41.12
2019-05-13T23:16:11.567Z,41.92
2019-05-13T23:18:42.081Z,43.02
2019-05-13T23:21:11.475Z,43.28
2019-05-13T23:23:40.445Z,42.90
2019-05-13T23:26:09.067Z,42.63
2019-05-13T23:28:38.679Z,42.00
2019-05-13T23:31:07.319Z,44.18
2019-05-13T23:33:35.949Z,43.70
2019-05-13T23:36:04.690Z,43.02
2019-05-13T23:38:33.566Z,43.21
2019-05-13T23:41:03.488Z,43.08
2019-05-13T23:43:32.238Z,44.50
2019-05-13T23:46:01.351Z,44.73
2019-05-13T23:48:31.974Z,44.11
2019-05-13T23:51:01.368Z,42.54
2019-05-13T23:53:31.522Z,42.49
2019-05-13T23:56:01.993Z,43.97
2019-05-13T23:58:32.204Z,44.29
